createdAt,value
2022-12-06T00:01:05.242Z,7.10
2022-12-06T00:03:32.054Z,7.10
2022-12-06T00:06:02.451Z,7.30
2022-12-06T00:08:29.112Z,7.40
2022-12-06T00:10:55.852Z,7.40
2022-12-06T00:13:22.621Z,7.10
2022-12-06T00:15:49.315Z,7.00
2022-12-06T00:18:16.020Z,6.70
2022-12-06T00:20:42.657Z,6.70
2022-12-06T00:23:09.262Z,6.80
2022-12-06T00:25:36.014Z,6.90
2022-12-06T00:28:02.680Z,7.00
2022-12-06T00:30:29.301Z,7.10
2022-12-06T00:32:55.950Z,7.00
2022-12-06T00:35:22.652Z,7.00
2022-12-06T00:37:49.350Z,7.10
2022-12-06T00:40:16.066Z,7.20
2022-12-06T00:42:42.728Z,7.00
2022-12-06T00:45:09.432Z,6.70
2022-12-06T00:47:36.153Z,6.90
2022-12-06T00:50:03.205Z,7.00
2022-12-06T00:52:29.888Z,7.10
2022-12-06T00:54:56.731Z,7.10
2022-12-06T00:57:23.419Z,7.00
2022-12-06T00:59:52.668Z,6.80
2022-12-06T01:02:19.367Z,6.80
2022-12-06T01:04:46.026Z,6.80
2022-12-06T01:07:12.771Z,6.70
2022-12-06T01:09:39.411Z,6.60
2022-12-06T01:12:06.235Z,6.70
2022-12-06T01:14:33.119Z,6.80
2022-12-06T01:16:59.829Z,7.00
2022-12-06T01:19:26.603Z,7.00
2022-12-06T01:21:53.470Z,6.90
2022-12-06T01:24:20.139Z,6.90
2022-12-06T01:26:46.884Z,6.80
2022-12-06T01:29:13.649Z,6.80
2022-12-06T01:31:40.397Z,6.90
2022-12-06T01:34:07.840Z,6.90
2022-12-06T01:36:34.542Z,6.30
2022-12-06T01:39:06.508Z,6.50
2022-12-06T01:41:33.210Z,6.70
2022-12-06T01:43:59.890Z,6.80
2022-12-06T01:46:39.515Z,6.70
2022-12-06T01:49:12.344Z,6.60
2022-12-06T01:51:40.407Z,6.70
2022-12-06T01:54:07.989Z,6.80
2022-12-06T01:56:34.681Z,6.80
2022-12-06T01:59:01.421Z,6.90
2022-12-06T02:01:28.618Z,6.90
2022-12-06T02:03:55.699Z,7.00
2022-12-06T02:06:22.652Z,6.90
2022-12-06T02:08:49.794Z,6.90
2022-12-06T02:11:16.614Z,6.90
2022-12-06T02:13:43.398Z,6.80
2022-12-06T02:16:28.906Z,6.70
2022-12-06T02:18:58.862Z,6.70
2022-12-06T02:21:44.085Z,6.60
2022-12-06T02:24:25.108Z,6.60
2022-12-06T02:26:52.192Z,6.10
2022-12-06T02:29:18.957Z,6.00
2022-12-06T02:31:55.015Z,6.30
2022-12-06T02:34:24.117Z,6.20
2022-12-06T02:36:53.791Z,6.30
2022-12-06T02:39:24.968Z,6.30
2022-12-06T02:41:57.857Z,6.20
2022-12-06T02:44:26.285Z,6.00
2022-12-06T02:46:53.038Z,6.00
2022-12-06T02:49:19.712Z,6.00
2022-12-06T02:51:46.381Z,6.20
2022-12-06T02:54:13.058Z,6.40
2022-12-06T02:56:39.704Z,6.40
2022-12-06T02:59:06.410Z,6.50
2022-12-06T03:01:33.584Z,6.50
2022-12-06T03:04:12.670Z,6.20
2022-12-06T03:06:48.185Z,6.20
2022-12-06T03:09:27.051Z,6.10
2022-12-06T03:12:03.213Z,6.10
2022-12-06T03:14:34.204Z,6.00
2022-12-06T03:17:24.366Z,6.00
2022-12-06T03:20:12.091Z,6.00
2022-12-06T03:22:40.118Z,6.20
2022-12-06T03:25:07.370Z,6.30
2022-12-06T03:27:34.062Z,6.30
2022-12-06T03:30:01.366Z,6.20
2022-12-06T03:32:28.733Z,6.10
2022-12-06T03:34:55.906Z,5.90
2022-12-06T03:37:23.212Z,6.20
2022-12-06T03:39:51.782Z,6.30
2022-12-06T03:42:18.626Z,6.30
2022-12-06T03:44:45.355Z,5.80
2022-12-06T03:47:16.010Z,6.00
2022-12-06T03:49:43.974Z,6.20
2022-12-06T03:52:10.653Z,6.50
2022-12-06T03:54:40.879Z,6.50
2022-12-06T03:57:07.583Z,6.50
2022-12-06T03:59:34.239Z,6.30
2022-12-06T04:02:01.025Z,6.40
2022-12-06T04:04:27.810Z,6.40
2022-12-06T04:06:54.487Z,6.40
2022-12-06T04:09:39.720Z,6.20
2022-12-06T04:12:26.544Z,6.00
2022-12-06T04:14:53.267Z,5.70
2022-12-06T04:17:38.645Z,5.80
2022-12-06T04:20:05.760Z,5.90
2022-12-06T04:22:51.146Z,5.80
2022-12-06T04:25:17.779Z,5.10
2022-12-06T04:28:02.820Z,5.00
2022-12-06T04:30:47.900Z,4.90
2022-12-06T04:33:33.042Z,5.40
2022-12-06T04:36:18.198Z,5.30
2022-12-06T04:38:44.840Z,5.40
2022-12-06T04:41:12.256Z,5.70
2022-12-06T04:43:42.061Z,5.80
2022-12-06T04:46:12.455Z,6.00
2022-12-06T04:48:39.211Z,6.20
2022-12-06T04:51:05.984Z,6.40
2022-12-06T04:53:32.683Z,6.50
2022-12-06T04:55:59.309Z,6.70
2022-12-06T04:58:26.017Z,6.80
2022-12-06T05:00:53.887Z,6.80
2022-12-06T05:03:20.640Z,6.80
2022-12-06T05:05:47.347Z,6.50
2022-12-06T05:08:14.127Z,6.50
2022-12-06T05:10:40.838Z,6.70
2022-12-06T05:13:07.579Z,6.90
2022-12-06T05:15:34.494Z,7.00
2022-12-06T05:18:01.195Z,7.10
2022-12-06T05:20:27.859Z,7.10
2022-12-06T05:22:54.479Z,7.10
2022-12-06T05:25:21.261Z,7.20
2022-12-06T05:27:48.322Z,7.20
2022-12-06T05:30:15.030Z,7.20
2022-12-06T05:32:41.784Z,6.90
2022-12-06T05:35:08.869Z,7.10
2022-12-06T05:37:35.540Z,7.20
2022-12-06T05:40:03.135Z,7.10
2022-12-06T05:42:30.041Z,7.40
2022-12-06T05:44:56.726Z,7.40
2022-12-06T05:47:23.428Z,7.50
2022-12-06T05:49:51.230Z,7.60
2022-12-06T05:52:17.910Z,7.50
2022-12-06T05:54:44.562Z,7.40
2022-12-06T05:57:11.252Z,6.90
2022-12-06T05:59:37.899Z,6.90
2022-12-06T06:02:05.124Z,6.80
2022-12-06T06:04:31.846Z,7.00
2022-12-06T06:06:58.555Z,7.20
2022-12-06T06:09:27.188Z,7.30
2022-12-06T06:11:54.438Z,7.40
2022-12-06T06:14:23.874Z,7.50
2022-12-06T06:16:52.250Z,7.70
2022-12-06T06:19:19.077Z,7.90
2022-12-06T06:21:47.074Z,8.10
2022-12-06T06:24:13.832Z,8.10
2022-12-06T06:26:40.680Z,8.20
2022-12-06T06:29:07.409Z,7.90
2022-12-06T06:31:34.476Z,7.90
2022-12-06T06:34:01.242Z,7.60
2022-12-06T06:36:27.887Z,7.80
2022-12-06T06:38:54.645Z,8.00
2022-12-06T06:41:21.482Z,7.90
2022-12-06T06:43:48.201Z,7.80
2022-12-06T06:46:15.080Z,7.90
2022-12-06T06:48:41.813Z,7.70
2022-12-06T06:51:09.338Z,8.00
2022-12-06T06:53:36.229Z,8.00
2022-12-06T06:56:02.956Z,7.80
2022-12-06T06:58:29.620Z,7.80
2022-12-06T07:00:56.963Z,8.00
2022-12-06T07:03:23.878Z,8.10
2022-12-06T07:05:57.262Z,8.20
2022-12-06T07:08:24.703Z,8.10
2022-12-06T07:10:51.448Z,8.00
2022-12-06T07:13:18.385Z,7.90
2022-12-06T07:15:45.077Z,8.10
2022-12-06T07:18:11.828Z,8.20
2022-12-06T07:20:38.553Z,8.00
2022-12-06T07:23:05.279Z,7.90
2022-12-06T07:25:32.484Z,8.00
2022-12-06T07:27:59.144Z,7.90
2022-12-06T07:30:27.660Z,7.60
2022-12-06T07:32:54.563Z,7.70
2022-12-06T07:35:21.656Z,8.00
2022-12-06T07:37:48.305Z,8.20
2022-12-06T07:40:16.948Z,8.40
2022-12-06T07:43:02.402Z,8.60
2022-12-06T07:45:29.115Z,8.50
2022-12-06T07:47:55.756Z,8.60
2022-12-06T07:50:22.597Z,8.70
2022-12-06T07:52:49.647Z,8.70
2022-12-06T07:55:16.511Z,8.80
2022-12-06T07:57:44.180Z,8.90
2022-12-06T08:00:11.872Z,8.90
2022-12-06T08:02:38.592Z,9.00
2022-12-06T08:05:05.347Z,9.00
2022-12-06T08:07:32.304Z,9.20
2022-12-06T08:09:59.334Z,9.30
2022-12-06T08:12:26.396Z,9.40
2022-12-06T08:14:58.140Z,9.50
2022-12-06T08:17:26.203Z,9.60
2022-12-06T08:19:52.916Z,9.30
2022-12-06T08:22:19.600Z,9.00
2022-12-06T08:24:46.291Z,8.90
2022-12-06T08:27:12.988Z,9.00
2022-12-06T08:29:39.682Z,9.10
2022-12-06T08:32:06.403Z,9.40
2022-12-06T08:34:33.632Z,9.50
2022-12-06T08:37:03.332Z,9.70
2022-12-06T08:39:30.510Z,9.70
2022-12-06T08:42:00.530Z,9.90
2022-12-06T08:44:27.839Z,10.00
2022-12-06T08:46:54.662Z,10.20
2022-12-06T08:49:21.913Z,10.40
2022-12-06T08:51:48.583Z,10.40
2022-12-06T08:54:16.159Z,10.00
2022-12-06T08:56:42.815Z,10.00
2022-12-06T08:59:09.562Z,10.30
2022-12-06T09:01:38.299Z,10.60
2022-12-06T09:04:06.102Z,10.70
2022-12-06T09:06:32.828Z,10.70
2022-12-06T09:08:59.504Z,10.70
2022-12-06T09:11:26.205Z,10.60
2022-12-06T09:13:52.864Z,10.70
2022-12-06T09:16:20.895Z,10.80
2022-12-06T09:18:47.590Z,10.70
2022-12-06T09:21:15.613Z,10.30
2022-12-06T09:23:42.399Z,10.20
2022-12-06T09:26:09.207Z,10.00
2022-12-06T09:28:36.490Z,10.10
2022-12-06T09:31:03.658Z,10.00
2022-12-06T09:33:30.344Z,10.00
2022-12-06T09:35:57.182Z,10.10
2022-12-06T09:38:24.344Z,10.50
2022-12-06T09:40:54.131Z,10.60
2022-12-06T09:43:29.785Z,10.90
2022-12-06T09:46:15.479Z,10.80
2022-12-06T09:48:49.380Z,10.70
2022-12-06T09:51:23.709Z,10.80
2022-12-06T09:54:06.381Z,10.90
2022-12-06T09:56:36.242Z,11.20
2022-12-06T09:59:06.003Z,11.10
2022-12-06T10:01:41.805Z,10.90
2022-12-06T10:04:08.559Z,10.90
2022-12-06T10:06:47.263Z,12.20
2022-12-06T10:09:13.998Z,12.30
2022-12-06T10:11:59.144Z,12.30
2022-12-06T10:14:45.627Z,12.20
2022-12-06T10:17:20.702Z,12.60
2022-12-06T10:19:50.611Z,12.10
2022-12-06T10:22:36.044Z,11.20
2022-12-06T10:25:02.748Z,10.70
2022-12-06T10:27:32.456Z,10.80
2022-12-06T10:30:03.345Z,10.80
2022-12-06T10:32:39.815Z,11.20
2022-12-06T10:35:21.550Z,11.00
2022-12-06T10:37:51.273Z,10.80
2022-12-06T10:40:21.147Z,11.30
2022-12-06T10:42:47.894Z,11.90
2022-12-06T10:45:37.739Z,12.20
2022-12-06T10:48:07.508Z,12.70
2022-12-06T10:50:34.729Z,12.80
2022-12-06T10:53:03.047Z,12.40
2022-12-06T10:55:38.919Z,12.60
2022-12-06T10:58:08.796Z,12.60
2022-12-06T11:00:37.509Z,12.90
2022-12-06T11:03:11.713Z,12.70
2022-12-06T11:05:38.452Z,12.90
2022-12-06T11:08:37.640Z,12.50
2022-12-06T11:11:05.083Z,12.70
2022-12-06T11:13:43.946Z,12.50
2022-12-06T11:16:23.668Z,12.40
2022-12-06T11:18:50.457Z,12.50
2022-12-06T11:21:31.672Z,12.60
2022-12-06T11:24:00.858Z,12.70
2022-12-06T11:26:34.136Z,13.00
2022-12-06T11:29:07.096Z,12.70
2022-12-06T11:31:40.954Z,12.80
2022-12-06T11:34:13.439Z,13.00
2022-12-06T11:36:40.126Z,12.50
2022-12-06T11:39:06.858Z,12.10
2022-12-06T11:41:34.179Z,12.00
2022-12-06T11:44:00.874Z,12.10
2022-12-06T11:46:27.629Z,12.10
2022-12-06T11:48:54.572Z,12.10
2022-12-06T11:51:22.328Z,11.90
2022-12-06T11:53:52.015Z,11.90
2022-12-06T11:56:39.085Z,11.80
2022-12-06T11:59:12.010Z,11.70
2022-12-06T12:01:48.940Z,11.50
2022-12-06T12:04:31.420Z,11.50
2022-12-06T12:06:59.291Z,11.50
2022-12-06T12:09:26.647Z,11.60
2022-12-06T12:11:53.921Z,11.50
2022-12-06T12:14:27.824Z,11.40
2022-12-06T12:16:56.516Z,11.50
2022-12-06T12:19:29.355Z,11.40
2022-12-06T12:21:56.467Z,11.60
2022-12-06T12:25:17.291Z,11.50
2022-12-06T12:27:38.979Z,11.60
2022-12-06T12:30:18.048Z,11.30
2022-12-06T12:32:45.026Z,11.30
2022-12-06T12:35:37.973Z,11.20
2022-12-06T12:38:04.754Z,11.20
2022-12-06T12:40:41.779Z,11.10
2022-12-06T12:43:14.824Z,11.00
2022-12-06T12:46:03.022Z,11.00
2022-12-06T12:48:30.073Z,10.90
2022-12-06T12:51:00.699Z,10.80
2022-12-06T12:53:39.490Z,10.90
2022-12-06T12:56:08.043Z,11.00
2022-12-06T12:58:36.325Z,11.10
2022-12-06T13:01:05.978Z,11.00
2022-12-06T13:03:50.802Z,11.00
2022-12-06T13:06:21.510Z,11.00
2022-12-06T13:08:48.294Z,11.10
2022-12-06T13:11:15.000Z,11.10
2022-12-06T13:13:44.625Z,11.00
2022-12-06T13:16:12.561Z,10.80
2022-12-06T13:18:41.308Z,10.70
2022-12-06T13:21:20.278Z,10.70
2022-12-06T13:23:47.554Z,10.60
2022-12-06T13:26:26.939Z,10.60
2022-12-06T13:28:54.718Z,10.60
2022-12-06T13:31:22.383Z,10.70
2022-12-06T13:33:51.012Z,10.70
2022-12-06T13:36:17.718Z,10.60
2022-12-06T13:38:44.397Z,10.70
2022-12-06T13:41:56.699Z,10.70
2022-12-06T13:44:42.096Z,10.70
2022-12-06T13:47:27.171Z,10.40
2022-12-06T13:49:57.629Z,10.50
2022-12-06T13:52:42.453Z,10.80
2022-12-06T13:55:24.192Z,10.80
2022-12-06T13:57:50.901Z,10.70
2022-12-06T14:00:29.729Z,10.70
2022-12-06T14:02:59.307Z,10.60
2022-12-06T14:05:44.617Z,10.70
2022-12-06T14:08:14.176Z,10.90
2022-12-06T14:10:40.907Z,10.80
2022-12-06T14:13:07.813Z,10.70
2022-12-06T14:15:38.631Z,10.60
2022-12-06T14:18:11.208Z,10.60
2022-12-06T14:20:39.681Z,10.70
2022-12-06T14:23:19.892Z,10.80
2022-12-06T14:25:46.576Z,10.90
2022-12-06T14:28:13.372Z,10.60
2022-12-06T14:30:40.199Z,10.60
2022-12-06T14:33:19.751Z,10.60
2022-12-06T14:35:50.783Z,10.60
2022-12-06T14:38:23.781Z,10.60
2022-12-06T14:41:09.613Z,10.50
2022-12-06T14:43:36.379Z,10.50
2022-12-06T14:46:03.983Z,10.50
2022-12-06T14:48:51.327Z,10.50
2022-12-06T14:51:23.070Z,10.30
2022-12-06T14:53:50.290Z,10.30
2022-12-06T14:56:29.115Z,10.40
2022-12-06T14:58:56.710Z,10.30
2022-12-06T15:01:30.051Z,10.20
2022-12-06T15:04:23.137Z,10.20
2022-12-06T15:06:53.892Z,10.20
2022-12-06T15:09:22.234Z,10.20
2022-12-06T15:12:07.509Z,10.30
2022-12-06T15:14:39.969Z,10.30
2022-12-06T15:17:09.653Z,10.20
2022-12-06T15:19:36.808Z,10.20
2022-12-06T15:22:04.359Z,10.10
2022-12-06T15:24:31.162Z,10.00
2022-12-06T15:26:57.792Z,10.10
2022-12-06T15:29:24.489Z,10.10
2022-12-06T15:31:52.016Z,10.10
2022-12-06T15:34:28.538Z,10.10
2022-12-06T15:37:15.170Z,10.10
2022-12-06T15:39:42.442Z,10.10
2022-12-06T15:42:14.965Z,10.30
2022-12-06T15:44:45.760Z,10.10
2022-12-06T15:47:15.769Z,10.20
2022-12-06T15:49:42.539Z,10.10
2022-12-06T15:52:13.480Z,10.20
2022-12-06T15:54:40.231Z,10.10
2022-12-06T15:57:06.964Z,10.10
2022-12-06T15:59:33.709Z,10.00
2022-12-06T16:02:01.458Z,10.10
2022-12-06T16:04:32.470Z,10.10
2022-12-06T16:06:59.209Z,10.20
2022-12-06T16:09:25.894Z,10.10
2022-12-06T16:11:52.646Z,10.20
2022-12-06T16:14:19.269Z,10.20
2022-12-06T16:16:46.141Z,10.20
2022-12-06T16:19:12.911Z,10.20
2022-12-06T16:21:52.499Z,10.20
2022-12-06T16:24:19.804Z,10.20
2022-12-06T16:26:46.448Z,10.20
2022-12-06T16:29:14.260Z,10.10
2022-12-06T16:31:41.254Z,10.00
2022-12-06T16:34:08.151Z,9.90
2022-12-06T16:36:34.938Z,9.90
2022-12-06T16:39:02.537Z,10.00
2022-12-06T16:41:30.043Z,9.90
2022-12-06T16:43:56.715Z,9.70
2022-12-06T16:46:30.562Z,9.70
2022-12-06T16:48:59.808Z,9.80
2022-12-06T16:51:37.228Z,9.90
2022-12-06T16:54:03.995Z,9.80
2022-12-06T16:56:37.482Z,9.80
2022-12-06T16:59:08.152Z,9.70
2022-12-06T17:01:38.512Z,9.70
2022-12-06T17:04:06.568Z,9.60
2022-12-06T17:06:33.675Z,9.70
2022-12-06T17:09:00.339Z,9.60
2022-12-06T17:11:47.136Z,9.50
2022-12-06T17:14:14.182Z,9.60
2022-12-06T17:16:41.112Z,9.50
2022-12-06T17:19:08.425Z,9.40
2022-12-06T17:21:35.159Z,9.30
2022-12-06T17:24:02.532Z,9.40
2022-12-06T17:26:30.242Z,9.40
2022-12-06T17:28:56.981Z,9.50
2022-12-06T17:31:23.749Z,9.40
2022-12-06T17:33:50.454Z,9.40
2022-12-06T17:36:22.058Z,9.30
2022-12-06T17:38:52.177Z,9.30
2022-12-06T17:41:38.012Z,9.20
2022-12-06T17:44:04.888Z,9.20
2022-12-06T17:46:31.627Z,9.30
2022-12-06T17:48:58.398Z,9.20
2022-12-06T17:51:25.290Z,9.20
2022-12-06T17:53:52.075Z,9.20
2022-12-06T17:56:25.342Z,9.00
2022-12-06T17:58:52.618Z,9.00
2022-12-06T18:01:19.865Z,9.00
2022-12-06T18:03:46.577Z,9.10
2022-12-06T18:06:13.272Z,9.10
2022-12-06T18:08:39.958Z,9.20
2022-12-06T18:11:07.602Z,9.40
2022-12-06T18:13:34.407Z,9.40
2022-12-06T18:16:01.227Z,9.30
2022-12-06T18:18:28.023Z,9.30
2022-12-06T18:20:54.768Z,9.30
2022-12-06T18:23:21.496Z,9.40
2022-12-06T18:25:50.087Z,9.50
2022-12-06T18:28:16.822Z,9.40
2022-12-06T18:30:43.524Z,9.40
2022-12-06T18:33:10.216Z,9.40
2022-12-06T18:35:36.940Z,9.40
2022-12-06T18:38:04.416Z,9.50
2022-12-06T18:40:31.453Z,9.30
2022-12-06T18:42:58.098Z,9.30
2022-12-06T18:45:24.916Z,9.40
2022-12-06T18:47:51.573Z,9.40
2022-12-06T18:50:18.202Z,9.40
2022-12-06T18:52:44.907Z,9.40
2022-12-06T18:55:11.620Z,9.30
2022-12-06T18:57:38.495Z,9.40
2022-12-06T19:00:05.795Z,9.40
2022-12-06T19:02:32.700Z,9.20
2022-12-06T19:04:59.772Z,9.30
2022-12-06T19:07:26.749Z,9.20
2022-12-06T19:09:53.470Z,9.10
2022-12-06T19:12:20.192Z,9.20
2022-12-06T19:14:46.927Z,9.30
2022-12-06T19:17:13.768Z,9.30
2022-12-06T19:19:40.764Z,9.20
2022-12-06T19:22:07.662Z,9.20
2022-12-06T19:24:34.511Z,9.00
2022-12-06T19:27:01.337Z,9.00
2022-12-06T19:29:28.100Z,9.10
2022-12-06T19:31:54.775Z,9.10
2022-12-06T19:34:25.441Z,9.10
2022-12-06T19:36:52.520Z,8.50
2022-12-06T19:39:19.480Z,8.70
2022-12-06T19:42:04.734Z,8.80
2022-12-06T19:44:31.466Z,8.90
2022-12-06T19:46:58.103Z,8.90
2022-12-06T19:49:25.079Z,8.70
2022-12-06T19:51:51.821Z,8.70
2022-12-06T19:54:19.457Z,8.70
2022-12-06T19:56:46.200Z,8.60
2022-12-06T19:59:13.007Z,8.80
2022-12-06T20:01:40.453Z,8.70
2022-12-06T20:04:07.174Z,8.70
2022-12-06T20:06:35.013Z,8.90
2022-12-06T20:09:01.710Z,8.80
2022-12-06T20:11:46.828Z,8.70
2022-12-06T20:14:14.648Z,9.00
2022-12-06T20:16:42.440Z,9.00
2022-12-06T20:19:09.452Z,9.10
2022-12-06T20:21:36.203Z,9.10
2022-12-06T20:24:03.012Z,9.30
2022-12-06T20:26:30.267Z,9.00
2022-12-06T20:28:56.917Z,9.00
2022-12-06T20:31:24.870Z,9.10
2022-12-06T20:33:51.873Z,9.00
2022-12-06T20:36:19.402Z,8.80
2022-12-06T20:38:46.257Z,8.90
2022-12-06T20:41:17.173Z,8.70
2022-12-06T20:43:44.127Z,8.60
2022-12-06T20:46:15.087Z,8.80
2022-12-06T20:48:42.426Z,8.90
2022-12-06T20:51:13.002Z,9.10
2022-12-06T20:53:40.849Z,9.10
2022-12-06T20:56:09.417Z,9.20
2022-12-06T20:58:36.256Z,9.20
2022-12-06T21:01:03.167Z,9.10
2022-12-06T21:03:29.997Z,8.90
2022-12-06T21:05:59.936Z,8.70
2022-12-06T21:08:26.791Z,8.90
2022-12-06T21:11:21.072Z,8.80
2022-12-06T21:13:41.668Z,8.80
2022-12-06T21:16:18.499Z,8.80
2022-12-06T21:18:45.533Z,8.90
2022-12-06T21:21:19.877Z,9.00
2022-12-06T21:23:46.612Z,9.00
2022-12-06T21:26:15.932Z,9.00
2022-12-06T21:28:42.708Z,9.30
2022-12-06T21:31:09.532Z,9.30
2022-12-06T21:33:36.289Z,9.00
2022-12-06T21:36:03.667Z,8.70
2022-12-06T21:38:30.709Z,8.50
2022-12-06T21:41:01.528Z,8.70
2022-12-06T21:43:28.748Z,8.80
2022-12-06T21:45:55.460Z,8.80
2022-12-06T21:48:22.239Z,8.70
2022-12-06T21:50:48.916Z,8.80
2022-12-06T21:53:15.753Z,8.70
2022-12-06T21:55:42.591Z,8.60
2022-12-06T21:58:09.323Z,8.40
2022-12-06T22:00:36.040Z,8.30
2022-12-06T22:03:02.744Z,8.40
2022-12-06T22:05:29.558Z,8.40
2022-12-06T22:07:56.228Z,8.50
2022-12-06T22:10:22.980Z,8.50
2022-12-06T22:12:49.914Z,8.60
2022-12-06T22:15:16.800Z,8.40
2022-12-06T22:17:43.537Z,8.10
2022-12-06T22:20:10.351Z,8.30
2022-12-06T22:22:37.090Z,8.10
2022-12-06T22:25:04.263Z,8.20
2022-12-06T22:27:31.202Z,8.30
2022-12-06T22:29:57.922Z,8.40
2022-12-06T22:32:24.610Z,8.60
2022-12-06T22:34:51.404Z,8.50
2022-12-06T22:37:18.171Z,8.60
2022-12-06T22:39:44.834Z,8.70
2022-12-06T22:42:11.579Z,8.60
2022-12-06T22:44:38.305Z,8.20
2022-12-06T22:47:05.217Z,8.00
2022-12-06T22:49:31.950Z,7.90
2022-12-06T22:51:58.623Z,7.90
2022-12-06T22:54:25.316Z,8.00
2022-12-06T22:56:52.031Z,8.20
2022-12-06T22:59:18.899Z,8.20
2022-12-06T23:01:45.758Z,8.10
2022-12-06T23:04:12.678Z,8.00
2022-12-06T23:06:39.472Z,8.30
2022-12-06T23:09:06.554Z,8.50
2022-12-06T23:11:33.824Z,8.50
2022-12-06T23:14:00.607Z,8.60
2022-12-06T23:16:28.386Z,8.50
2022-12-06T23:18:56.439Z,8.60
2022-12-06T23:21:24.136Z,8.40
2022-12-06T23:23:51.617Z,8.40
2022-12-06T23:26:19.098Z,8.40
2022-12-06T23:28:45.772Z,8.30
2022-12-06T23:31:18.356Z,8.30
2022-12-06T23:33:45.213Z,8.10
2022-12-06T23:36:13.157Z,8.20
2022-12-06T23:38:39.950Z,8.30
2022-12-06T23:41:07.412Z,8.40
2022-12-06T23:43:34.351Z,8.20
2022-12-06T23:46:06.925Z,8.40
2022-12-06T23:48:34.501Z,8.60
2022-12-06T23:51:04.412Z,8.60
2022-12-06T23:53:31.117Z,8.60
2022-12-06T23:55:58.903Z,8.40
2022-12-06T23:58:26.046Z,8.40
